sensor_id;sensor_type;location;lat;lon;timestamp;P1;durP1;ratioP1;P2;durP2;ratioP2
21705;SDS011;11014;53.076;18.208;2023-12-28T00:00:59;48.88;;;23.13;;
21705;SDS011;11014;53.076;18.208;2023-12-28T00:06:41;68.18;;;28.30;;
21705;SDS011;11014;53.076;18.208;2023-12-28T00:09:10;75.20;;;30.23;;
21705;SDS011;11014;53.076;18.208;2023-12-28T00:15:02;75.10;;;29.38;;
21705;SDS011;11014;53.076;18.208;2023-12-28T00:17:35;66.28;;;27.55;;
21705;SDS011;11014;53.076;18.208;2023-12-28T00:20:04;68.53;;;26.50;;
21705;SDS011;11014;53.076;18.208;2023-12-28T00:23:23;66.78;;;25.98;;
21705;SDS011;11014;53.076;18.208;2023-12-28T00:25:51;66.88;;;27.00;;
21705;SDS011;11014;53.076;18.208;2023-12-28T00:28:24;62.25;;;26.20;;
21705;SDS011;11014;53.076;18.208;2023-12-28T00:30:57;68.82;;;26.17;;
21705;SDS011;11014;53.076;18.208;2023-12-28T00:33:32;64.93;;;27.52;;
21705;SDS011;11014;53.076;18.208;2023-12-28T00:39:09;60.35;;;25.70;;
21705;SDS011;11014;53.076;18.208;2023-12-28T00:41:38;62.88;;;26.20;;
21705;SDS011;11014;53.076;18.208;2023-12-28T00:47:30;59.95;;;25.67;;
21705;SDS011;11014;53.076;18.208;2023-12-28T00:49:59;71.57;;;26.77;;
21705;SDS011;11014;53.076;18.208;2023-12-28T00:52:29;60.17;;;25.08;;
21705;SDS011;11014;53.076;18.208;2023-12-28T00:54:58;61.65;;;24.83;;
21705;SDS011;11014;53.076;18.208;2023-12-28T00:57:26;55.85;;;23.58;;
21705;SDS011;11014;53.076;18.208;2023-12-28T00:59:55;58.70;;;24.25;;
21705;SDS011;11014;53.076;18.208;2023-12-28T01:05:53;54.88;;;23.13;;
21705;SDS011;11014;53.076;18.208;2023-12-28T01:08:22;57.70;;;23.42;;
21705;SDS011;11014;53.076;18.208;2023-12-28T01:10:54;60.05;;;23.45;;
21705;SDS011;11014;53.076;18.208;2023-12-28T01:15:58;49.22;;;20.23;;
21705;SDS011;11014;53.076;18.208;2023-12-28T01:18:27;50.05;;;21.80;;
21705;SDS011;11014;53.076;18.208;2023-12-28T01:21:00;54.40;;;22.92;;
21705;SDS011;11014;53.076;18.208;2023-12-28T01:23:32;65.60;;;24.83;;
21705;SDS011;11014;53.076;18.208;2023-12-28T01:26:17;67.28;;;26.02;;
21705;SDS011;11014;53.076;18.208;2023-12-28T01:28:50;89.13;;;31.33;;
21705;SDS011;11014;53.076;18.208;2023-12-28T01:31:19;77.93;;;27.60;;
21705;SDS011;11014;53.076;18.208;2023-12-28T01:33:48;76.88;;;25.92;;
21705;SDS011;11014;53.076;18.208;2023-12-28T01:36:17;55.00;;;24.45;;
21705;SDS011;11014;53.076;18.208;2023-12-28T01:38:49;73.53;;;23.98;;
21705;SDS011;11014;53.076;18.208;2023-12-28T01:41:19;59.90;;;23.00;;
21705;SDS011;11014;53.076;18.208;2023-12-28T01:43:48;64.45;;;23.88;;
21705;SDS011;11014;53.076;18.208;2023-12-28T01:46:17;69.45;;;25.23;;
21705;SDS011;11014;53.076;18.208;2023-12-28T01:48:48;61.83;;;22.40;;
21705;SDS011;11014;53.076;18.208;2023-12-28T01:54:13;42.90;;;19.45;;
21705;SDS011;11014;53.076;18.208;2023-12-28T01:56:42;41.90;;;19.40;;
21705;SDS011;11014;53.076;18.208;2023-12-28T01:59:16;50.15;;;20.65;;
21705;SDS011;11014;53.076;18.208;2023-12-28T02:01:54;42.70;;;19.27;;
21705;SDS011;11014;53.076;18.208;2023-12-28T02:04:23;52.05;;;20.20;;
21705;SDS011;11014;53.076;18.208;2023-12-28T02:06:59;54.38;;;20.05;;
21705;SDS011;11014;53.076;18.208;2023-12-28T02:09:29;51.45;;;20.08;;
21705;SDS011;11014;53.076;18.208;2023-12-28T02:11:57;44.88;;;20.02;;
21705;SDS011;11014;53.076;18.208;2023-12-28T02:20:18;39.40;;;17.75;;
21705;SDS011;11014;53.076;18.208;2023-12-28T02:22:50;50.20;;;19.83;;
21705;SDS011;11014;53.076;18.208;2023-12-28T02:25:20;51.58;;;19.67;;
21705;SDS011;11014;53.076;18.208;2023-12-28T02:27:49;50.72;;;21.15;;
21705;SDS011;11014;53.076;18.208;2023-12-28T02:30:22;44.38;;;18.45;;
21705;SDS011;11014;53.076;18.208;2023-12-28T02:33:02;47.80;;;18.08;;
21705;SDS011;11014;53.076;18.208;2023-12-28T02:38:28;49.10;;;18.67;;
21705;SDS011;11014;53.076;18.208;2023-12-28T02:40:59;40.47;;;18.02;;
21705;SDS011;11014;53.076;18.208;2023-12-28T02:43:29;46.10;;;18.02;;
21705;SDS011;11014;53.076;18.208;2023-12-28T02:45:58;42.35;;;17.83;;
21705;SDS011;11014;53.076;18.208;2023-12-28T02:48:26;61.00;;;22.80;;
21705;SDS011;11014;53.076;18.208;2023-12-28T02:50:55;51.95;;;21.45;;
21705;SDS011;11014;53.076;18.208;2023-12-28T02:53:23;45.40;;;18.40;;
21705;SDS011;11014;53.076;18.208;2023-12-28T02:55:52;42.88;;;16.42;;
21705;SDS011;11014;53.076;18.208;2023-12-28T02:58:21;41.03;;;16.85;;
21705;SDS011;11014;53.076;18.208;2023-12-28T03:00:50;43.17;;;15.93;;
21705;SDS011;11014;53.076;18.208;2023-12-28T03:03:19;37.42;;;16.40;;
21705;SDS011;11014;53.076;18.208;2023-12-28T03:05:49;32.42;;;15.00;;
21705;SDS011;11014;53.076;18.208;2023-12-28T03:08:17;33.10;;;15.65;;
21705;SDS011;11014;53.076;18.208;2023-12-28T03:10:46;31.23;;;14.43;;
21705;SDS011;11014;53.076;18.208;2023-12-28T03:13:14;31.80;;;14.50;;
21705;SDS011;11014;53.076;18.208;2023-12-28T03:15:43;35.90;;;15.10;;
21705;SDS011;11014;53.076;18.208;2023-12-28T03:18:12;33.25;;;14.70;;
21705;SDS011;11014;53.076;18.208;2023-12-28T03:20:41;36.60;;;16.35;;
21705;SDS011;11014;53.076;18.208;2023-12-28T03:23:11;33.35;;;14.38;;
21705;SDS011;11014;53.076;18.208;2023-12-28T03:25:40;29.90;;;14.55;;
21705;SDS011;11014;53.076;18.208;2023-12-28T03:28:09;30.35;;;14.85;;
21705;SDS011;11014;53.076;18.208;2023-12-28T03:30:39;33.03;;;14.82;;
21705;SDS011;11014;53.076;18.208;2023-12-28T03:33:07;38.42;;;16.33;;
21705;SDS011;11014;53.076;18.208;2023-12-28T03:35:36;37.40;;;15.75;;
21705;SDS011;11014;53.076;18.208;2023-12-28T03:38:05;32.58;;;14.98;;
21705;SDS011;11014;53.076;18.208;2023-12-28T03:40:35;34.47;;;15.35;;
21705;SDS011;11014;53.076;18.208;2023-12-28T03:43:03;29.92;;;15.13;;
21705;SDS011;11014;53.076;18.208;2023-12-28T03:45:32;32.40;;;15.63;;
21705;SDS011;11014;53.076;18.208;2023-12-28T03:48:00;36.83;;;17.70;;
21705;SDS011;11014;53.076;18.208;2023-12-28T03:50:30;38.72;;;16.85;;
21705;SDS011;11014;53.076;18.208;2023-12-28T03:52:58;28.08;;;14.40;;
21705;SDS011;11014;53.076;18.208;2023-12-28T03:55:27;32.63;;;13.68;;
21705;SDS011;11014;53.076;18.208;2023-12-28T03:57:55;28.15;;;13.25;;
21705;SDS011;11014;53.076;18.208;2023-12-28T04:00:25;27.40;;;14.02;;
21705;SDS011;11014;53.076;18.208;2023-12-28T04:02:53;29.25;;;14.60;;
21705;SDS011;11014;53.076;18.208;2023-12-28T04:05:22;25.63;;;13.82;;
21705;SDS011;11014;53.076;18.208;2023-12-28T04:07:51;35.35;;;14.60;;
21705;SDS011;11014;53.076;18.208;2023-12-28T04:10:28;26.95;;;14.00;;
21705;SDS011;11014;53.076;18.208;2023-12-28T04:12:58;28.25;;;14.38;;
21705;SDS011;11014;53.076;18.208;2023-12-28T04:15:28;30.48;;;14.48;;
21705;SDS011;11014;53.076;18.208;2023-12-28T04:17:58;27.25;;;13.23;;
21705;SDS011;11014;53.076;18.208;2023-12-28T04:20:29;35.05;;;14.70;;
21705;SDS011;11014;53.076;18.208;2023-12-28T04:22:57;26.85;;;13.98;;
21705;SDS011;11014;53.076;18.208;2023-12-28T04:25:26;31.75;;;16.58;;
21705;SDS011;11014;53.076;18.208;2023-12-28T04:27:54;32.05;;;14.60;;
21705;SDS011;11014;53.076;18.208;2023-12-28T04:30:23;28.33;;;15.02;;
21705;SDS011;11014;53.076;18.208;2023-12-28T04:32:54;32.92;;;14.45;;
21705;SDS011;11014;53.076;18.208;2023-12-28T04:35:25;31.85;;;14.48;;
21705;SDS011;11014;53.076;18.208;2023-12-28T04:37:53;29.83;;;15.23;;
21705;SDS011;11014;53.076;18.208;2023-12-28T04:40:23;30.55;;;15.32;;
21705;SDS011;11014;53.076;18.208;2023-12-28T04:42:52;34.40;;;16.65;;
21705;SDS011;11014;53.076;18.208;2023-12-28T04:45:20;32.58;;;16.73;;
21705;SDS011;11014;53.076;18.208;2023-12-28T04:47:50;51.58;;;25.52;;
21705;SDS011;11014;53.076;18.208;2023-12-28T04:50:19;31.48;;;15.48;;
21705;SDS011;11014;53.076;18.208;2023-12-28T04:52:49;33.40;;;15.75;;
21705;SDS011;11014;53.076;18.208;2023-12-28T04:55:18;31.90;;;15.13;;
21705;SDS011;11014;53.076;18.208;2023-12-28T04:57:47;30.33;;;15.38;;
21705;SDS011;11014;53.076;18.208;2023-12-28T05:00:18;32.45;;;15.43;;
21705;SDS011;11014;53.076;18.208;2023-12-28T05:02:48;30.60;;;14.10;;
21705;SDS011;11014;53.076;18.208;2023-12-28T05:05:17;31.50;;;15.52;;
21705;SDS011;11014;53.076;18.208;2023-12-28T05:07:46;33.65;;;15.07;;
21705;SDS011;11014;53.076;18.208;2023-12-28T05:10:15;31.52;;;15.57;;
21705;SDS011;11014;53.076;18.208;2023-12-28T05:12:43;33.30;;;16.10;;
21705;SDS011;11014;53.076;18.208;2023-12-28T05:15:12;28.25;;;15.23;;
21705;SDS011;11014;53.076;18.208;2023-12-28T05:17:41;33.95;;;15.68;;
21705;SDS011;11014;53.076;18.208;2023-12-28T05:20:10;32.13;;;15.57;;
21705;SDS011;11014;53.076;18.208;2023-12-28T05:22:38;31.42;;;15.20;;
21705;SDS011;11014;53.076;18.208;2023-12-28T05:25:07;29.58;;;14.55;;
21705;SDS011;11014;53.076;18.208;2023-12-28T05:27:36;36.92;;;14.73;;
21705;SDS011;11014;53.076;18.208;2023-12-28T05:30:05;27.90;;;14.73;;
21705;SDS011;11014;53.076;18.208;2023-12-28T05:32:41;28.92;;;15.02;;
21705;SDS011;11014;53.076;18.208;2023-12-28T05:35:10;30.27;;;15.43;;
21705;SDS011;11014;53.076;18.208;2023-12-28T05:37:38;30.30;;;16.42;;
21705;SDS011;11014;53.076;18.208;2023-12-28T05:40:07;31.42;;;15.70;;
21705;SDS011;11014;53.076;18.208;2023-12-28T05:42:37;33.58;;;15.07;;
21705;SDS011;11014;53.076;18.208;2023-12-28T05:45:06;29.17;;;14.40;;
21705;SDS011;11014;53.076;18.208;2023-12-28T05:47:35;31.70;;;15.00;;
21705;SDS011;11014;53.076;18.208;2023-12-28T05:50:04;28.33;;;14.85;;
21705;SDS011;11014;53.076;18.208;2023-12-28T05:52:34;30.83;;;14.80;;
21705;SDS011;11014;53.076;18.208;2023-12-28T05:55:02;27.50;;;14.13;;
21705;SDS011;11014;53.076;18.208;2023-12-28T05:57:32;23.48;;;13.45;;
21705;SDS011;11014;53.076;18.208;2023-12-28T06:00:00;28.83;;;14.68;;
21705;SDS011;11014;53.076;18.208;2023-12-28T06:02:39;27.95;;;14.60;;
21705;SDS011;11014;53.076;18.208;2023-12-28T06:05:08;24.52;;;13.75;;
21705;SDS011;11014;53.076;18.208;2023-12-28T06:07:37;28.35;;;13.55;;
21705;SDS011;11014;53.076;18.208;2023-12-28T06:10:06;27.98;;;13.88;;
21705;SDS011;11014;53.076;18.208;2023-12-28T06:12:35;25.25;;;13.48;;
21705;SDS011;11014;53.076;18.208;2023-12-28T06:15:05;26.58;;;13.65;;
21705;SDS011;11014;53.076;18.208;2023-12-28T06:17:34;30.00;;;14.45;;
21705;SDS011;11014;53.076;18.208;2023-12-28T06:20:02;26.65;;;12.75;;
21705;SDS011;11014;53.076;18.208;2023-12-28T06:22:32;25.85;;;13.35;;
21705;SDS011;11014;53.076;18.208;2023-12-28T06:25:01;28.45;;;13.68;;
21705;SDS011;11014;53.076;18.208;2023-12-28T06:27:30;27.30;;;14.55;;
21705;SDS011;11014;53.076;18.208;2023-12-28T06:29:59;25.13;;;13.90;;
21705;SDS011;11014;53.076;18.208;2023-12-28T06:32:27;28.50;;;13.75;;
21705;SDS011;11014;53.076;18.208;2023-12-28T06:34:58;23.73;;;13.52;;
21705;SDS011;11014;53.076;18.208;2023-12-28T06:37:27;22.92;;;12.95;;
21705;SDS011;11014;53.076;18.208;2023-12-28T06:39:55;26.35;;;13.35;;
21705;SDS011;11014;53.076;18.208;2023-12-28T06:42:24;22.52;;;13.00;;
21705;SDS011;11014;53.076;18.208;2023-12-28T06:44:53;29.48;;;14.48;;
21705;SDS011;11014;53.076;18.208;2023-12-28T06:47:21;29.60;;;14.63;;
21705;SDS011;11014;53.076;18.208;2023-12-28T06:49:50;29.10;;;14.55;;
21705;SDS011;11014;53.076;18.208;2023-12-28T07:03:42;25.60;;;11.45;;
21705;SDS011;11014;53.076;18.208;2023-12-28T07:07:49;21.40;;;12.60;;
21705;SDS011;11014;53.076;18.208;2023-12-28T07:10:18;27.33;;;12.93;;
21705;SDS011;11014;53.076;18.208;2023-12-28T07:12:46;26.13;;;13.43;;
21705;SDS011;11014;53.076;18.208;2023-12-28T07:15:15;22.90;;;11.63;;
21705;SDS011;11014;53.076;18.208;2023-12-28T07:17:44;23.33;;;12.48;;
21705;SDS011;11014;53.076;18.208;2023-12-28T07:20:13;21.63;;;11.63;;
21705;SDS011;11014;53.076;18.208;2023-12-28T07:22:41;25.25;;;12.32;;
21705;SDS011;11014;53.076;18.208;2023-12-28T07:25:10;20.75;;;10.98;;
21705;SDS011;11014;53.076;18.208;2023-12-28T07:27:39;20.05;;;11.63;;
21705;SDS011;11014;53.076;18.208;2023-12-28T07:30:08;19.45;;;10.48;;
21705;SDS011;11014;53.076;18.208;2023-12-28T07:32:37;22.00;;;11.10;;
21705;SDS011;11014;53.076;18.208;2023-12-28T07:35:05;19.35;;;9.50;;
21705;SDS011;11014;53.076;18.208;2023-12-28T07:37:34;18.27;;;10.25;;
21705;SDS011;11014;53.076;18.208;2023-12-28T07:40:03;17.80;;;9.63;;
21705;SDS011;11014;53.076;18.208;2023-12-28T07:42:32;18.15;;;9.70;;
21705;SDS011;11014;53.076;18.208;2023-12-28T07:45:01;19.83;;;9.70;;
21705;SDS011;11014;53.076;18.208;2023-12-28T07:47:29;22.10;;;10.75;;
21705;SDS011;11014;53.076;18.208;2023-12-28T07:49:58;17.15;;;10.00;;
21705;SDS011;11014;53.076;18.208;2023-12-28T07:52:28;17.10;;;9.07;;
21705;SDS011;11014;53.076;18.208;2023-12-28T07:54:57;14.93;;;8.88;;
21705;SDS011;11014;53.076;18.208;2023-12-28T07:57:27;14.10;;;8.55;;
21705;SDS011;11014;53.076;18.208;2023-12-28T07:59:56;15.18;;;8.88;;
21705;SDS011;11014;53.076;18.208;2023-12-28T08:02:24;15.43;;;8.32;;
21705;SDS011;11014;53.076;18.208;2023-12-28T08:04:53;14.48;;;8.48;;
21705;SDS011;11014;53.076;18.208;2023-12-28T08:07:22;14.23;;;7.93;;
21705;SDS011;11014;53.076;18.208;2023-12-28T08:09:51;16.20;;;8.20;;
21705;SDS011;11014;53.076;18.208;2023-12-28T08:12:19;14.13;;;7.90;;
21705;SDS011;11014;53.076;18.208;2023-12-28T08:14:49;13.60;;;7.55;;
21705;SDS011;11014;53.076;18.208;2023-12-28T08:17:18;15.45;;;7.75;;
21705;SDS011;11014;53.076;18.208;2023-12-28T08:19:47;15.35;;;7.22;;
21705;SDS011;11014;53.076;18.208;2023-12-28T08:22:15;13.90;;;7.18;;
21705;SDS011;11014;53.076;18.208;2023-12-28T08:24:44;15.70;;;7.68;;
21705;SDS011;11014;53.076;18.208;2023-12-28T08:27:12;13.00;;;7.00;;
21705;SDS011;11014;53.076;18.208;2023-12-28T08:29:41;14.35;;;7.13;;
21705;SDS011;11014;53.076;18.208;2023-12-28T08:32:13;11.95;;;6.22;;
21705;SDS011;11014;53.076;18.208;2023-12-28T08:34:42;12.15;;;6.90;;
21705;SDS011;11014;53.076;18.208;2023-12-28T08:37:11;12.13;;;6.80;;
21705;SDS011;11014;53.076;18.208;2023-12-28T08:39:40;12.60;;;6.78;;
21705;SDS011;11014;53.076;18.208;2023-12-28T08:42:08;12.25;;;6.63;;
21705;SDS011;11014;53.076;18.208;2023-12-28T08:44:37;11.50;;;5.95;;
21705;SDS011;11014;53.076;18.208;2023-12-28T08:47:06;11.10;;;6.22;;
21705;SDS011;11014;53.076;18.208;2023-12-28T08:49:34;8.20;;;6.00;;
21705;SDS011;11014;53.076;18.208;2023-12-28T08:52:03;9.38;;;6.13;;
21705;SDS011;11014;53.076;18.208;2023-12-28T08:54:32;12.98;;;6.13;;
21705;SDS011;11014;53.076;18.208;2023-12-28T08:57:01;10.00;;;6.20;;
21705;SDS011;11014;53.076;18.208;2023-12-28T08:59:29;10.00;;;5.65;;
21705;SDS011;11014;53.076;18.208;2023-12-28T09:01:57;12.43;;;6.28;;
21705;SDS011;11014;53.076;18.208;2023-12-28T09:04:26;11.20;;;6.05;;
21705;SDS011;11014;53.076;18.208;2023-12-28T09:06:55;12.27;;;6.25;;
21705;SDS011;11014;53.076;18.208;2023-12-28T09:09:23;11.32;;;6.03;;
21705;SDS011;11014;53.076;18.208;2023-12-28T09:11:52;10.48;;;6.63;;
21705;SDS011;11014;53.076;18.208;2023-12-28T09:14:20;11.00;;;6.20;;
21705;SDS011;11014;53.076;18.208;2023-12-28T09:16:49;10.57;;;6.35;;
21705;SDS011;11014;53.076;18.208;2023-12-28T09:19:18;11.93;;;6.03;;
21705;SDS011;11014;53.076;18.208;2023-12-28T09:21:46;11.73;;;6.03;;
21705;SDS011;11014;53.076;18.208;2023-12-28T09:24:15;15.20;;;6.13;;
21705;SDS011;11014;53.076;18.208;2023-12-28T09:26:46;8.60;;;5.45;;
21705;SDS011;11014;53.076;18.208;2023-12-28T09:29:15;9.80;;;5.63;;
21705;SDS011;11014;53.076;18.208;2023-12-28T09:31:43;10.05;;;5.32;;
21705;SDS011;11014;53.076;18.208;2023-12-28T09:34:15;11.98;;;8.40;;
21705;SDS011;11014;53.076;18.208;2023-12-28T09:36:45;10.07;;;6.15;;
21705;SDS011;11014;53.076;18.208;2023-12-28T09:39:14;9.48;;;5.45;;
21705;SDS011;11014;53.076;18.208;2023-12-28T09:41:43;8.75;;;5.68;;
21705;SDS011;11014;53.076;18.208;2023-12-28T09:44:17;8.93;;;5.53;;
21705;SDS011;11014;53.076;18.208;2023-12-28T09:46:46;8.98;;;5.63;;
21705;SDS011;11014;53.076;18.208;2023-12-28T09:49:15;7.55;;;5.15;;
21705;SDS011;11014;53.076;18.208;2023-12-28T09:51:45;9.23;;;5.47;;
21705;SDS011;11014;53.076;18.208;2023-12-28T09:54:15;8.93;;;5.43;;
21705;SDS011;11014;53.076;18.208;2023-12-28T09:56:45;8.95;;;5.35;;
21705;SDS011;11014;53.076;18.208;2023-12-28T09:59:14;8.57;;;4.65;;
21705;SDS011;11014;53.076;18.208;2023-12-28T10:01:45;8.18;;;5.22;;
21705;SDS011;11014;53.076;18.208;2023-12-28T10:04:15;10.10;;;5.22;;
21705;SDS011;11014;53.076;18.208;2023-12-28T10:06:44;8.68;;;5.35;;
21705;SDS011;11014;53.076;18.208;2023-12-28T10:09:13;9.73;;;5.32;;
21705;SDS011;11014;53.076;18.208;2023-12-28T10:11:42;10.10;;;5.55;;
21705;SDS011;11014;53.076;18.208;2023-12-28T10:14:10;9.13;;;5.05;;
21705;SDS011;11014;53.076;18.208;2023-12-28T10:16:41;9.38;;;5.30;;
21705;SDS011;11014;53.076;18.208;2023-12-28T10:19:10;8.90;;;5.22;;
21705;SDS011;11014;53.076;18.208;2023-12-28T10:21:39;8.88;;;4.80;;
21705;SDS011;11014;53.076;18.208;2023-12-28T10:24:09;7.60;;;4.57;;
21705;SDS011;11014;53.076;18.208;2023-12-28T10:26:38;10.15;;;5.32;;
21705;SDS011;11014;53.076;18.208;2023-12-28T10:29:07;8.93;;;4.50;;
21705;SDS011;11014;53.076;18.208;2023-12-28T10:31:37;9.55;;;4.43;;
21705;SDS011;11014;53.076;18.208;2023-12-28T10:34:11;8.35;;;4.68;;
21705;SDS011;11014;53.076;18.208;2023-12-28T10:36:40;8.20;;;4.38;;
21705;SDS011;11014;53.076;18.208;2023-12-28T10:39:10;8.02;;;4.97;;
21705;SDS011;11014;53.076;18.208;2023-12-28T10:41:43;7.18;;;4.30;;
21705;SDS011;11014;53.076;18.208;2023-12-28T10:44:18;6.53;;;4.35;;
21705;SDS011;11014;53.076;18.208;2023-12-28T10:46:51;8.40;;;4.63;;
21705;SDS011;11014;53.076;18.208;2023-12-28T10:49:26;6.47;;;4.05;;
21705;SDS011;11014;53.076;18.208;2023-12-28T10:51:55;7.00;;;4.43;;
21705;SDS011;11014;53.076;18.208;2023-12-28T10:57:22;7.20;;;4.80;;
21705;SDS011;11014;53.076;18.208;2023-12-28T11:00:00;9.10;;;5.25;;
21705;SDS011;11014;53.076;18.208;2023-12-28T11:02:41;7.85;;;4.82;;
21705;SDS011;11014;53.076;18.208;2023-12-28T11:05:14;8.48;;;5.03;;
21705;SDS011;11014;53.076;18.208;2023-12-28T11:07:45;11.43;;;5.40;;
21705;SDS011;11014;53.076;18.208;2023-12-28T11:10:16;6.70;;;4.70;;
21705;SDS011;11014;53.076;18.208;2023-12-28T11:12:47;9.73;;;5.97;;
21705;SDS011;11014;53.076;18.208;2023-12-28T11:15:17;8.48;;;5.05;;
21705;SDS011;11014;53.076;18.208;2023-12-28T11:17:46;8.60;;;4.82;;
21705;SDS011;11014;53.076;18.208;2023-12-28T11:20:16;10.68;;;5.07;;
21705;SDS011;11014;53.076;18.208;2023-12-28T11:22:45;9.25;;;4.82;;
21705;SDS011;11014;53.076;18.208;2023-12-28T11:25:15;9.75;;;5.15;;
21705;SDS011;11014;53.076;18.208;2023-12-28T11:27:45;10.18;;;5.85;;
21705;SDS011;11014;53.076;18.208;2023-12-28T11:30:17;7.78;;;4.82;;
21705;SDS011;11014;53.076;18.208;2023-12-28T11:32:46;8.68;;;5.25;;
21705;SDS011;11014;53.076;18.208;2023-12-28T11:35:15;8.00;;;5.07;;
21705;SDS011;11014;53.076;18.208;2023-12-28T11:37:45;8.32;;;4.40;;
21705;SDS011;11014;53.076;18.208;2023-12-28T11:43:20;6.75;;;4.20;;
21705;SDS011;11014;53.076;18.208;2023-12-28T11:45:56;8.23;;;3.90;;
21705;SDS011;11014;53.076;18.208;2023-12-28T11:48:26;5.50;;;2.97;;
21705;SDS011;11014;53.076;18.208;2023-12-28T11:51:00;5.82;;;3.55;;
21705;SDS011;11014;53.076;18.208;2023-12-28T11:53:29;6.47;;;2.80;;
21705;SDS011;11014;53.076;18.208;2023-12-28T11:56:01;5.68;;;3.42;;
21705;SDS011;11014;53.076;18.208;2023-12-28T11:58:31;4.75;;;3.35;;
21705;SDS011;11014;53.076;18.208;2023-12-28T12:01:04;4.95;;;3.25;;
21705;SDS011;11014;53.076;18.208;2023-12-28T12:03:33;5.75;;;3.88;;
21705;SDS011;11014;53.076;18.208;2023-12-28T12:06:02;6.35;;;4.20;;
21705;SDS011;11014;53.076;18.208;2023-12-28T12:08:31;7.53;;;4.00;;
21705;SDS011;11014;53.076;18.208;2023-12-28T12:11:06;7.40;;;4.20;;
21705;SDS011;11014;53.076;18.208;2023-12-28T12:13:35;7.82;;;4.55;;
21705;SDS011;11014;53.076;18.208;2023-12-28T12:16:05;8.82;;;4.90;;
21705;SDS011;11014;53.076;18.208;2023-12-28T12:18:35;9.23;;;5.00;;
21705;SDS011;11014;53.076;18.208;2023-12-28T12:21:04;8.82;;;4.80;;
21705;SDS011;11014;53.076;18.208;2023-12-28T12:23:34;8.02;;;4.53;;
21705;SDS011;11014;53.076;18.208;2023-12-28T12:26:06;7.18;;;4.38;;
21705;SDS011;11014;53.076;18.208;2023-12-28T12:28:35;7.70;;;4.63;;
21705;SDS011;11014;53.076;18.208;2023-12-28T12:31:04;9.13;;;4.88;;
21705;SDS011;11014;53.076;18.208;2023-12-28T12:33:33;7.22;;;4.72;;
21705;SDS011;11014;53.076;18.208;2023-12-28T12:36:02;7.95;;;4.47;;
21705;SDS011;11014;53.076;18.208;2023-12-28T12:38:32;5.68;;;4.40;;
21705;SDS011;11014;53.076;18.208;2023-12-28T12:41:01;9.52;;;5.28;;
21705;SDS011;11014;53.076;18.208;2023-12-28T12:43:30;9.38;;;4.50;;
21705;SDS011;11014;53.076;18.208;2023-12-28T12:45:59;7.20;;;4.43;;
21705;SDS011;11014;53.076;18.208;2023-12-28T12:48:28;7.55;;;4.68;;
21705;SDS011;11014;53.076;18.208;2023-12-28T12:50:57;6.55;;;4.50;;
21705;SDS011;11014;53.076;18.208;2023-12-28T12:53:32;7.75;;;3.63;;
21705;SDS011;11014;53.076;18.208;2023-12-28T12:56:02;8.98;;;4.53;;
21705;SDS011;11014;53.076;18.208;2023-12-28T12:58:31;7.35;;;4.63;;
21705;SDS011;11014;53.076;18.208;2023-12-28T13:01:05;6.97;;;4.03;;
21705;SDS011;11014;53.076;18.208;2023-12-28T13:03:33;7.15;;;4.15;;
21705;SDS011;11014;53.076;18.208;2023-12-28T13:06:04;8.65;;;4.47;;
21705;SDS011;11014;53.076;18.208;2023-12-28T13:08:33;8.00;;;4.20;;
21705;SDS011;11014;53.076;18.208;2023-12-28T13:11:02;8.00;;;4.72;;
21705;SDS011;11014;53.076;18.208;2023-12-28T13:13:30;7.65;;;4.63;;
21705;SDS011;11014;53.076;18.208;2023-12-28T13:15:59;8.73;;;4.22;;
21705;SDS011;11014;53.076;18.208;2023-12-28T13:18:30;6.88;;;4.03;;
21705;SDS011;11014;53.076;18.208;2023-12-28T13:25:59;4.93;;;3.80;;
21705;SDS011;11014;53.076;18.208;2023-12-28T13:28:28;7.65;;;4.40;;
21705;SDS011;11014;53.076;18.208;2023-12-28T13:30:56;7.93;;;4.63;;
21705;SDS011;11014;53.076;18.208;2023-12-28T13:33:25;6.60;;;4.07;;
21705;SDS011;11014;53.076;18.208;2023-12-28T13:35:54;7.40;;;4.20;;
21705;SDS011;11014;53.076;18.208;2023-12-28T13:38:23;8.52;;;4.72;;
21705;SDS011;11014;53.076;18.208;2023-12-28T13:40:51;9.63;;;4.70;;
21705;SDS011;11014;53.076;18.208;2023-12-28T13:43:20;7.95;;;4.35;;
21705;SDS011;11014;53.076;18.208;2023-12-28T13:45:48;7.30;;;4.68;;
21705;SDS011;11014;53.076;18.208;2023-12-28T13:48:18;7.55;;;4.43;;
21705;SDS011;11014;53.076;18.208;2023-12-28T13:50:47;7.25;;;4.80;;
21705;SDS011;11014;53.076;18.208;2023-12-28T13:53:36;7.78;;;4.85;;
21705;SDS011;11014;53.076;18.208;2023-12-28T13:56:15;8.15;;;4.65;;
21705;SDS011;11014;53.076;18.208;2023-12-28T13:58:44;8.27;;;4.53;;
21705;SDS011;11014;53.076;18.208;2023-12-28T14:01:15;7.72;;;4.80;;
21705;SDS011;11014;53.076;18.208;2023-12-28T14:03:44;9.27;;;5.18;;
21705;SDS011;11014;53.076;18.208;2023-12-28T14:06:14;13.32;;;7.18;;
21705;SDS011;11014;53.076;18.208;2023-12-28T14:08:42;8.80;;;5.60;;
21705;SDS011;11014;53.076;18.208;2023-12-28T14:11:10;10.77;;;5.10;;
21705;SDS011;11014;53.076;18.208;2023-12-28T14:13:39;7.82;;;4.88;;
21705;SDS011;11014;53.076;18.208;2023-12-28T14:16:07;8.82;;;4.88;;
21705;SDS011;11014;53.076;18.208;2023-12-28T14:18:37;8.90;;;5.28;;
21705;SDS011;11014;53.076;18.208;2023-12-28T14:21:08;8.18;;;5.50;;
21705;SDS011;11014;53.076;18.208;2023-12-28T14:23:37;9.10;;;5.70;;
21705;SDS011;11014;53.076;18.208;2023-12-28T14:26:15;8.38;;;5.93;;
21705;SDS011;11014;53.076;18.208;2023-12-28T14:28:47;9.93;;;5.07;;
21705;SDS011;11014;53.076;18.208;2023-12-28T14:31:18;9.60;;;4.82;;
21705;SDS011;11014;53.076;18.208;2023-12-28T14:33:47;10.88;;;5.55;;
21705;SDS011;11014;53.076;18.208;2023-12-28T14:36:23;9.30;;;5.15;;
21705;SDS011;11014;53.076;18.208;2023-12-28T14:39:00;8.07;;;4.60;;
21705;SDS011;11014;53.076;18.208;2023-12-28T14:41:33;11.85;;;5.25;;
21705;SDS011;11014;53.076;18.208;2023-12-28T14:44:10;12.27;;;5.40;;
21705;SDS011;11014;53.076;18.208;2023-12-28T14:46:39;11.13;;;5.72;;
21705;SDS011;11014;53.076;18.208;2023-12-28T14:49:08;9.40;;;5.28;;
21705;SDS011;11014;53.076;18.208;2023-12-28T14:51:37;10.25;;;5.68;;
21705;SDS011;11014;53.076;18.208;2023-12-28T14:54:09;10.57;;;5.38;;
21705;SDS011;11014;53.076;18.208;2023-12-28T14:56:38;10.63;;;6.18;;
21705;SDS011;11014;53.076;18.208;2023-12-28T14:59:18;12.63;;;7.32;;
21705;SDS011;11014;53.076;18.208;2023-12-28T15:01:47;9.05;;;5.93;;
21705;SDS011;11014;53.076;18.208;2023-12-28T15:04:17;10.85;;;6.10;;
21705;SDS011;11014;53.076;18.208;2023-12-28T15:06:49;12.68;;;5.20;;
21705;SDS011;11014;53.076;18.208;2023-12-28T15:09:19;10.98;;;5.63;;
21705;SDS011;11014;53.076;18.208;2023-12-28T15:11:48;10.70;;;5.95;;
21705;SDS011;11014;53.076;18.208;2023-12-28T15:14:17;10.35;;;5.90;;
21705;SDS011;11014;53.076;18.208;2023-12-28T15:16:46;11.77;;;6.03;;
21705;SDS011;11014;53.076;18.208;2023-12-28T15:19:15;10.20;;;5.82;;
21705;SDS011;11014;53.076;18.208;2023-12-28T15:21:44;13.52;;;6.15;;
21705;SDS011;11014;53.076;18.208;2023-12-28T15:24:14;9.60;;;5.72;;
21705;SDS011;11014;53.076;18.208;2023-12-28T15:26:43;10.45;;;5.95;;
21705;SDS011;11014;53.076;18.208;2023-12-28T15:29:12;11.85;;;5.65;;